createdAt,value
2019-04-06T00:00:07.390Z,52.03
2019-04-06T00:01:26.172Z,52.75
2019-04-06T00:02:35.835Z,53.26
2019-04-06T00:03:40.793Z,53.15
2019-04-06T00:04:45.740Z,54.16
2019-04-06T00:05:51.020Z,53.59
2019-04-06T00:06:56.442Z,52.97
2019-04-06T00:08:01.329Z,53.49
2019-04-06T00:09:07.657Z,53.42
2019-04-06T00:10:12.996Z,52.92
2019-04-06T00:11:17.587Z,54.18
2019-04-06T00:12:22.219Z,53.42
2019-04-06T00:13:27.459Z,54.23
2019-04-06T00:14:32.477Z,54.29
2019-04-06T00:15:37.716Z,53.89
2019-04-06T00:16:42.677Z,53.96
2019-04-06T00:17:47.610Z,53.76
2019-04-06T00:18:52.807Z,52.83
2019-04-06T00:19:57.206Z,52.93
2019-04-06T00:21:02.486Z,52.37
2019-04-06T00:22:08.963Z,52.02
2019-04-06T00:23:15.142Z,53.16
2019-04-06T00:24:20.029Z,52.16
2019-04-06T00:25:24.991Z,52.34
2019-04-06T00:26:29.428Z,51.92
2019-04-06T00:27:34.670Z,51.42
2019-04-06T00:28:39.593Z,51.68
2019-04-06T00:29:44.599Z,52.26
2019-04-06T00:30:59.346Z,52.25
2019-04-06T00:32:14.694Z,52.15
2019-04-06T00:33:20.250Z,51.55
2019-04-06T00:34:24.848Z,52.19
2019-04-06T00:35:29.683Z,51.65
2019-04-06T00:36:34.610Z,52.05
2019-04-06T00:37:39.296Z,51.81
2019-04-06T00:38:44.254Z,51.57
2019-04-06T00:39:49.736Z,51.68
2019-04-06T00:40:54.935Z,52.27
2019-04-06T00:41:59.680Z,51.98
2019-04-06T00:43:04.677Z,52.31
2019-04-06T00:44:09.860Z,51.33
2019-04-06T00:45:14.820Z,52.58
2019-04-06T00:46:19.853Z,51.53
2019-04-06T00:47:24.802Z,51.55
2019-04-06T00:48:29.979Z,51.64
2019-04-06T00:49:35.229Z,51.16
2019-04-06T00:50:40.420Z,51.44
2019-04-06T00:51:45.500Z,51.65
2019-04-06T00:52:53.397Z,52.19
2019-04-06T00:53:58.927Z,52.33
2019-04-06T00:55:03.922Z,51.80
2019-04-06T00:56:08.523Z,51.59
2019-04-06T00:57:13.481Z,51.37
2019-04-06T00:58:18.608Z,51.60
2019-04-06T00:59:23.863Z,51.39
2019-04-06T01:00:28.811Z,51.68
2019-04-06T01:01:34.065Z,51.98
2019-04-06T01:02:39.045Z,52.15
2019-04-06T01:03:44.467Z,51.80
2019-04-06T01:04:49.718Z,51.85
2019-04-06T01:05:54.725Z,51.82
2019-04-06T01:07:00.021Z,51.70
2019-04-06T01:08:04.711Z,52.16
2019-04-06T01:09:11.005Z,51.87
2019-04-06T01:10:16.482Z,51.66
2019-04-06T01:11:20.896Z,51.47
2019-04-06T01:12:25.808Z,51.38
2019-04-06T01:13:30.466Z,51.86
2019-04-06T01:14:35.716Z,51.58
2019-04-06T01:15:41.062Z,51.63
2019-04-06T01:16:45.721Z,52.27
2019-04-06T01:17:51.057Z,52.32
2019-04-06T01:18:56.177Z,51.91
2019-04-06T01:20:01.167Z,51.96
2019-04-06T01:21:05.922Z,52.14
2019-04-06T01:22:11.295Z,52.09
2019-04-06T01:23:16.257Z,51.50
2019-04-06T01:24:21.394Z,51.52
2019-04-06T01:25:26.566Z,51.64
2019-04-06T01:26:31.529Z,51.91
2019-04-06T01:27:36.198Z,52.13
2019-04-06T01:28:41.492Z,52.10
2019-04-06T01:29:46.351Z,52.11
2019-04-06T01:30:51.642Z,52.16
2019-04-06T01:31:57.163Z,52.31
2019-04-06T01:33:02.419Z,52.14
2019-04-06T01:34:07.419Z,52.18
2019-04-06T01:35:12.099Z,51.93
2019-04-06T01:36:17.678Z,52.21
2019-04-06T01:37:22.932Z,52.24
2019-04-06T01:38:27.770Z,52.00
2019-04-06T01:39:32.749Z,51.88
2019-04-06T01:40:38.302Z,52.39
2019-04-06T01:41:43.837Z,52.35
2019-04-06T01:42:49.172Z,51.70
2019-04-06T01:43:54.379Z,51.72
2019-04-06T01:44:59.402Z,52.16
2019-04-06T01:46:04.326Z,51.60
2019-04-06T01:47:09.063Z,51.57
2019-04-06T01:48:13.741Z,52.29
2019-04-06T01:49:18.555Z,52.02
2019-04-06T01:50:23.481Z,51.73
2019-04-06T01:51:28.759Z,51.55
2019-04-06T01:52:33.584Z,51.69
2019-04-06T01:53:38.551Z,51.50
2019-04-06T01:54:43.512Z,51.68
2019-04-06T01:55:48.255Z,52.46
2019-04-06T01:56:53.616Z,52.56
2019-04-06T01:57:58.862Z,52.42
2019-04-06T01:59:03.770Z,53.14
2019-04-06T02:00:11.361Z,53.69
2019-04-06T02:01:32.106Z,53.54
2019-04-06T02:02:38.284Z,53.90
2019-04-06T02:03:43.371Z,53.84
2019-04-06T02:04:48.457Z,53.27
2019-04-06T02:05:53.317Z,52.67
2019-04-06T02:06:58.848Z,53.14
2019-04-06T02:08:03.894Z,53.36
2019-04-06T02:09:09.280Z,53.92
2019-04-06T02:10:14.743Z,52.71
2019-04-06T02:11:19.429Z,52.27
2019-04-06T02:12:24.130Z,52.35
2019-04-06T02:13:28.840Z,52.59
2019-04-06T02:14:34.037Z,52.51
2019-04-06T02:15:39.027Z,52.74
2019-04-06T02:16:43.795Z,52.94
2019-04-06T02:17:51.102Z,52.99
2019-04-06T02:18:55.977Z,52.84
2019-04-06T02:20:00.631Z,53.09
2019-04-06T02:21:05.310Z,52.93
2019-04-06T02:22:11.248Z,52.71
2019-04-06T02:23:16.371Z,53.01
2019-04-06T02:24:21.545Z,53.86
2019-04-06T02:25:26.779Z,53.41
2019-04-06T02:26:31.670Z,53.71
2019-04-06T02:27:36.598Z,53.57
2019-04-06T02:28:41.807Z,53.55
2019-04-06T02:29:48.711Z,53.29
2019-04-06T02:31:07.749Z,53.58
2019-04-06T02:32:31.627Z,53.71
2019-04-06T02:33:47.044Z,53.64
2019-04-06T02:35:07.291Z,53.71
2019-04-06T02:36:34.113Z,53.90
2019-04-06T02:37:57.710Z,54.35
2019-04-06T02:39:24.509Z,54.67
2019-04-06T02:40:43.592Z,54.44
2019-04-06T02:41:52.648Z,54.12
2019-04-06T02:43:10.590Z,53.92
2019-04-06T02:44:15.554Z,54.21
2019-04-06T02:45:20.519Z,53.85
2019-04-06T02:46:25.202Z,54.22
2019-04-06T02:47:30.237Z,53.72
2019-04-06T02:48:35.449Z,53.77
2019-04-06T02:49:40.433Z,53.83
2019-04-06T02:50:45.430Z,53.87
2019-04-06T02:51:50.771Z,53.75
2019-04-06T02:52:55.521Z,53.94
2019-04-06T02:54:00.495Z,53.88
2019-04-06T02:55:05.262Z,54.13
2019-04-06T02:56:10.318Z,53.81
2019-04-06T02:57:18.476Z,53.28
2019-04-06T02:58:24.752Z,53.41
2019-04-06T02:59:30.102Z,53.54
2019-04-06T03:00:35.001Z,53.99
2019-04-06T03:01:39.685Z,54.00
2019-04-06T03:02:44.375Z,53.55
2019-04-06T03:03:49.104Z,53.58
2019-04-06T03:04:53.813Z,53.39
2019-04-06T03:05:58.905Z,53.78
2019-04-06T03:07:03.414Z,53.46
2019-04-06T03:08:08.325Z,53.40
2019-04-06T03:09:13.558Z,53.47
2019-04-06T03:10:18.314Z,53.41
2019-04-06T03:11:23.312Z,53.18
2019-04-06T03:12:28.660Z,53.49
2019-04-06T03:13:33.890Z,53.56
2019-04-06T03:14:38.859Z,53.36
2019-04-06T03:15:44.196Z,53.51
2019-04-06T03:16:51.606Z,53.72
2019-04-06T03:17:56.857Z,53.74
2019-04-06T03:19:02.089Z,53.60
2019-04-06T03:20:06.923Z,53.83
2019-04-06T03:21:11.880Z,54.04
2019-04-06T03:22:17.125Z,54.02
2019-04-06T03:23:24.645Z,54.12
2019-04-06T03:24:28.969Z,53.99
2019-04-06T03:25:33.578Z,54.37
2019-04-06T03:26:38.539Z,54.20
2019-04-06T03:27:43.506Z,54.02
2019-04-06T03:28:48.585Z,54.07
2019-04-06T03:29:58.506Z,53.86
2019-04-06T03:31:00.886Z,53.81
2019-04-06T03:32:05.922Z,54.02
2019-04-06T03:33:11.174Z,54.50
2019-04-06T03:34:20.672Z,53.92
2019-04-06T03:35:23.669Z,53.81
2019-04-06T03:36:28.346Z,54.02
2019-04-06T03:37:33.755Z,53.61
2019-04-06T03:38:39.297Z,53.36
2019-04-06T03:39:44.367Z,53.32
2019-04-06T03:40:49.420Z,53.69
2019-04-06T03:41:54.970Z,53.81
2019-04-06T03:43:00.204Z,54.36
2019-04-06T03:44:05.323Z,54.18
2019-04-06T03:45:10.499Z,53.96
2019-04-06T03:46:15.699Z,54.23
2019-04-06T03:47:20.893Z,54.09
2019-04-06T03:48:26.640Z,53.98
2019-04-06T03:49:34.019Z,54.26
2019-04-06T03:50:38.822Z,54.07
2019-04-06T03:51:43.586Z,54.34
2019-04-06T03:52:48.591Z,54.18
2019-04-06T03:53:53.582Z,54.33
2019-04-06T03:54:58.830Z,54.21
2019-04-06T03:56:03.579Z,54.42
2019-04-06T03:57:15.856Z,54.28
2019-04-06T03:58:15.244Z,54.36
2019-04-06T03:59:20.210Z,54.52
2019-04-06T04:00:25.181Z,54.81
2019-04-06T04:01:30.221Z,54.49
2019-04-06T04:02:35.433Z,54.42
2019-04-06T04:03:40.473Z,55.00
2019-04-06T04:04:45.641Z,55.15
2019-04-06T04:05:50.644Z,54.68
2019-04-06T04:06:56.016Z,54.42
2019-04-06T04:08:01.088Z,55.06
2019-04-06T04:09:06.707Z,54.91
2019-04-06T04:10:14.465Z,54.74
2019-04-06T04:11:19.426Z,55.45
2019-04-06T04:12:24.082Z,54.97
2019-04-06T04:13:29.087Z,55.29
2019-04-06T04:14:34.226Z,55.31
2019-04-06T04:15:39.299Z,55.32
2019-04-06T04:16:44.422Z,55.23
2019-04-06T04:17:49.227Z,54.88
2019-04-06T04:18:54.648Z,54.90
2019-04-06T04:19:59.972Z,54.79
2019-04-06T04:21:04.788Z,54.14
2019-04-06T04:22:10.186Z,54.36
2019-04-06T04:23:18.146Z,54.17
2019-04-06T04:24:23.301Z,54.39
2019-04-06T04:25:28.532Z,55.08
2019-04-06T04:26:34.207Z,54.64
2019-04-06T04:27:41.509Z,54.34
2019-04-06T04:28:46.428Z,54.55
2019-04-06T04:29:51.435Z,54.19
2019-04-06T04:30:56.639Z,54.71
2019-04-06T04:32:01.282Z,54.42
2019-04-06T04:33:06.008Z,54.45
2019-04-06T04:34:10.691Z,54.42
2019-04-06T04:35:18.343Z,54.37
2019-04-06T04:36:22.472Z,54.08
2019-04-06T04:37:27.455Z,53.90
2019-04-06T04:38:32.081Z,53.88
2019-04-06T04:39:36.991Z,54.06
2019-04-06T04:40:42.171Z,54.34
2019-04-06T04:41:47.331Z,54.63
2019-04-06T04:42:52.050Z,55.05
2019-04-06T04:43:56.739Z,55.17
2019-04-06T04:45:01.708Z,55.02
2019-04-06T04:46:06.151Z,54.59
2019-04-06T04:47:11.121Z,54.91
2019-04-06T04:48:16.737Z,54.66
2019-04-06T04:49:21.648Z,54.79
2019-04-06T04:50:26.895Z,54.95
2019-04-06T04:51:31.599Z,54.70
2019-04-06T04:52:36.323Z,54.42
2019-04-06T04:53:41.693Z,54.42
2019-04-06T04:54:46.986Z,54.53
2019-04-06T04:55:52.226Z,54.62
2019-04-06T04:56:57.385Z,54.58
2019-04-06T04:58:02.777Z,54.36
2019-04-06T04:59:07.688Z,54.71
2019-04-06T05:00:12.371Z,54.96
2019-04-06T05:01:17.235Z,55.06
2019-04-06T05:02:22.466Z,55.14
2019-04-06T05:03:27.650Z,54.88
2019-04-06T05:04:32.662Z,54.49
2019-04-06T05:05:38.216Z,54.36
2019-04-06T05:06:43.403Z,54.25
2019-04-06T05:07:48.715Z,54.25
2019-04-06T05:08:53.965Z,54.62
2019-04-06T05:09:58.864Z,54.67
2019-04-06T05:11:03.530Z,55.32
2019-04-06T05:12:08.518Z,54.54
2019-04-06T05:13:15.005Z,54.58
2019-04-06T05:14:55.199Z,54.54
2019-04-06T05:16:11.647Z,54.71
2019-04-06T05:17:16.601Z,54.14
2019-04-06T05:18:21.520Z,53.85
2019-04-06T05:19:26.462Z,53.71
2019-04-06T05:20:31.425Z,53.74
2019-04-06T05:21:36.656Z,53.82
2019-04-06T05:22:41.475Z,53.75
2019-04-06T05:23:46.693Z,54.19
2019-04-06T05:24:51.493Z,53.77
2019-04-06T05:25:56.735Z,54.05
2019-04-06T05:27:02.233Z,54.25
2019-04-06T05:28:06.894Z,54.11
2019-04-06T05:29:11.901Z,54.02
2019-04-06T05:30:16.770Z,54.04
2019-04-06T05:31:21.478Z,54.83
2019-04-06T05:32:26.465Z,55.16
2019-04-06T05:33:31.689Z,55.38
2019-04-06T05:34:36.853Z,55.72
2019-04-06T05:35:41.840Z,54.73
2019-04-06T05:36:46.578Z,53.67
2019-04-06T05:37:51.448Z,54.77
2019-04-06T05:38:56.358Z,54.16
2019-04-06T05:40:01.372Z,53.48
2019-04-06T05:41:06.456Z,53.71
2019-04-06T05:42:11.561Z,54.08
2019-04-06T05:43:16.897Z,54.03
2019-04-06T05:44:21.830Z,53.91
2019-04-06T05:45:26.687Z,52.97
2019-04-06T05:46:31.659Z,52.84
2019-04-06T05:47:36.629Z,52.67
2019-04-06T05:48:41.376Z,53.19
2019-04-06T05:49:46.324Z,53.89
2019-04-06T05:50:51.275Z,53.67
2019-04-06T05:51:56.689Z,52.71
2019-04-06T05:53:01.811Z,52.54
2019-04-06T05:54:06.502Z,51.99
2019-04-06T05:55:11.444Z,52.22
2019-04-06T05:56:16.953Z,51.96
2019-04-06T05:57:22.247Z,51.76
2019-04-06T05:58:27.387Z,52.20
2019-04-06T05:59:32.767Z,53.59
2019-04-06T06:00:40.117Z,52.59
2019-04-06T06:01:44.486Z,52.58
2019-04-06T06:02:49.892Z,51.75
2019-04-06T06:03:54.882Z,51.72
2019-04-06T06:05:01.205Z,51.96
2019-04-06T06:06:06.390Z,52.85
2019-04-06T06:07:11.503Z,52.48
2019-04-06T06:08:16.680Z,52.78
2019-04-06T06:09:21.960Z,52.47
2019-04-06T06:10:26.665Z,51.98
2019-04-06T06:11:31.834Z,52.58
2019-04-06T06:12:37.106Z,52.76
2019-04-06T06:13:42.057Z,53.01
2019-04-06T06:14:46.653Z,52.50
2019-04-06T06:15:51.788Z,53.01
2019-04-06T06:16:56.998Z,51.72
2019-04-06T06:18:01.966Z,52.02
2019-04-06T06:19:06.914Z,51.76
2019-04-06T06:20:11.552Z,51.04
2019-04-06T06:21:16.707Z,51.22
2019-04-06T06:22:21.601Z,51.07
2019-04-06T06:23:26.302Z,50.57
2019-04-06T06:24:31.513Z,50.66
2019-04-06T06:25:36.309Z,50.22
2019-04-06T06:26:41.521Z,50.12
2019-04-06T06:27:46.503Z,53.99
2019-04-06T06:28:51.492Z,52.17
2019-04-06T06:29:56.173Z,51.47
2019-04-06T06:31:00.850Z,50.86
2019-04-06T06:32:06.298Z,50.41
2019-04-06T06:33:11.292Z,50.37
2019-04-06T06:34:16.534Z,51.45
2019-04-06T06:35:23.568Z,51.83
2019-04-06T06:36:28.932Z,51.19
2019-04-06T06:37:33.933Z,51.06
2019-04-06T06:38:39.414Z,50.38
2019-04-06T06:39:44.470Z,49.86
2019-04-06T06:40:49.422Z,50.17
2019-04-06T06:41:54.395Z,51.10
2019-04-06T06:42:58.889Z,50.20
2019-04-06T06:44:03.845Z,51.24
2019-04-06T06:45:09.231Z,50.86
2019-04-06T06:46:14.546Z,50.37
2019-04-06T06:47:19.222Z,50.19
2019-04-06T06:48:24.523Z,49.63
2019-04-06T06:49:29.856Z,52.04
2019-04-06T06:50:35.066Z,51.02
2019-04-06T06:51:40.037Z,51.41
2019-04-06T06:52:44.981Z,50.84
2019-04-06T06:53:50.286Z,50.74
2019-04-06T06:54:55.540Z,50.04
2019-04-06T06:56:00.414Z,51.38
2019-04-06T06:57:05.087Z,51.90
2019-04-06T06:58:10.074Z,51.40
2019-04-06T06:59:15.019Z,50.99
2019-04-06T07:00:19.994Z,50.47
2019-04-06T07:01:25.201Z,49.67
2019-04-06T07:02:30.078Z,51.15
2019-04-06T07:03:35.387Z,51.85
2019-04-06T07:04:40.859Z,50.76
2019-04-06T07:05:45.866Z,50.38
2019-04-06T07:06:53.075Z,50.26
2019-04-06T07:07:58.090Z,50.55
2019-04-06T07:09:05.075Z,49.34
2019-04-06T07:10:10.134Z,49.37
2019-04-06T07:11:14.832Z,51.10
2019-04-06T07:12:19.515Z,49.75
2019-04-06T07:13:24.534Z,48.93
2019-04-06T07:14:30.565Z,50.03
2019-04-06T07:15:35.536Z,49.97
2019-04-06T07:16:40.496Z,48.71
2019-04-06T07:17:45.750Z,48.94
2019-04-06T07:18:50.894Z,48.42
2019-04-06T07:19:56.475Z,48.61
2019-04-06T07:21:01.599Z,48.23
2019-04-06T07:22:06.298Z,48.05
2019-04-06T07:23:11.487Z,47.14
2019-04-06T07:24:16.417Z,47.18
2019-04-06T07:25:21.202Z,48.00
2019-04-06T07:26:26.634Z,47.51
2019-04-06T07:27:31.888Z,47.79
2019-04-06T07:28:39.004Z,48.86
2019-04-06T07:29:43.530Z,47.70
2019-04-06T07:30:48.553Z,47.09
2019-04-06T07:31:53.893Z,47.54
2019-04-06T07:32:58.896Z,47.04
2019-04-06T07:34:03.583Z,46.43
2019-04-06T07:35:08.377Z,47.35
2019-04-06T07:36:13.644Z,46.86
2019-04-06T07:37:18.835Z,47.25
2019-04-06T07:38:23.936Z,49.66
2019-04-06T07:39:29.049Z,47.86
2019-04-06T07:40:34.128Z,47.56
2019-04-06T07:41:39.378Z,47.27
2019-04-06T07:42:44.134Z,47.99
2019-04-06T07:43:49.159Z,49.24
2019-04-06T07:44:53.967Z,48.33
2019-04-06T07:45:58.592Z,48.11
2019-04-06T07:47:03.968Z,47.81
2019-04-06T07:48:08.957Z,46.83
2019-04-06T07:49:17.015Z,45.75
2019-04-06T07:50:21.621Z,45.90
2019-04-06T07:51:29.643Z,47.11
2019-04-06T07:52:34.849Z,46.61
2019-04-06T07:53:39.810Z,46.12
2019-04-06T07:54:45.046Z,46.14
2019-04-06T07:55:49.770Z,45.08
2019-04-06T07:56:54.594Z,45.97
2019-04-06T07:57:59.595Z,45.71
2019-04-06T07:59:05.052Z,44.87
2019-04-06T08:00:09.715Z,45.35
2019-04-06T08:01:15.146Z,45.33
2019-04-06T08:02:20.595Z,45.68
2019-04-06T08:03:25.325Z,45.63
2019-04-06T08:04:30.121Z,45.16
2019-04-06T08:05:34.822Z,44.96
2019-04-06T08:06:40.242Z,44.31
2019-04-06T08:07:45.461Z,44.21
2019-04-06T08:08:50.609Z,43.24
2019-04-06T08:09:55.472Z,43.38
2019-04-06T08:11:00.201Z,42.64
2019-04-06T08:12:05.770Z,43.32
2019-04-06T08:13:11.307Z,42.62
2019-04-06T08:14:16.292Z,42.14
2019-04-06T08:15:21.261Z,42.71
2019-04-06T08:16:26.812Z,43.74
2019-04-06T08:17:34.206Z,43.99
2019-04-06T08:18:39.482Z,43.78
2019-04-06T08:19:44.099Z,42.51
2019-04-06T08:20:49.048Z,42.96
2019-04-06T08:21:54.265Z,45.16
2019-04-06T08:22:58.923Z,45.11
2019-04-06T08:24:03.579Z,43.95
2019-04-06T08:25:08.642Z,44.94
2019-04-06T08:26:13.307Z,44.99
2019-04-06T08:27:18.824Z,45.86
2019-04-06T08:28:23.173Z,44.57
2019-04-06T08:29:27.975Z,44.34
2019-04-06T08:30:44.413Z,44.18
2019-04-06T08:31:39.303Z,44.43
2019-04-06T08:32:44.247Z,44.79
2019-04-06T08:33:49.168Z,43.76
2019-04-06T08:34:53.761Z,43.17
2019-04-06T08:35:59.091Z,42.40
2019-04-06T08:37:04.495Z,42.90
2019-04-06T08:38:09.663Z,44.40
2019-04-06T08:39:14.687Z,45.10
2019-04-06T08:40:19.906Z,45.76
2019-04-06T08:41:24.900Z,43.65
2019-04-06T08:42:29.677Z,43.09
2019-04-06T08:43:34.953Z,44.01
2019-04-06T08:44:40.309Z,42.32
2019-04-06T08:45:45.211Z,41.80
2019-04-06T08:46:50.802Z,41.92
2019-04-06T08:47:55.492Z,42.26
2019-04-06T08:49:00.479Z,41.06
2019-04-06T08:50:06.061Z,41.20
2019-04-06T08:51:11.326Z,42.01
2019-04-06T08:52:16.740Z,41.42
2019-04-06T08:53:21.958Z,40.92
2019-04-06T08:54:27.193Z,41.71
2019-04-06T08:55:32.452Z,41.44
2019-04-06T08:56:37.723Z,40.23
2019-04-06T08:57:42.929Z,40.27
2019-04-06T08:58:47.884Z,40.14
2019-04-06T08:59:53.713Z,40.93
2019-04-06T09:00:59.054Z,41.63
2019-04-06T09:02:04.196Z,41.77
2019-04-06T09:03:09.571Z,41.43
2019-04-06T09:04:14.821Z,41.22
2019-04-06T09:05:20.110Z,40.32
2019-04-06T09:06:24.846Z,39.67
2019-04-06T09:07:29.823Z,40.64
2019-04-06T09:08:34.786Z,39.95
2019-04-06T09:09:40.053Z,39.99
2019-04-06T09:10:45.337Z,39.31
2019-04-06T09:11:50.691Z,38.86
2019-04-06T09:12:55.563Z,37.65
2019-04-06T09:14:00.127Z,36.58
2019-04-06T09:15:05.874Z,36.49
2019-04-06T09:16:10.839Z,36.17
2019-04-06T09:17:15.585Z,34.33
2019-04-06T09:18:20.547Z,31.28
2019-04-06T09:19:25.271Z,30.10
2019-04-06T09:20:29.923Z,27.98
2019-04-06T09:21:34.969Z,27.47
2019-04-06T09:22:40.217Z,25.98
2019-04-06T09:23:45.471Z,25.62
2019-04-06T09:24:50.511Z,24.92
2019-04-06T09:25:55.756Z,23.40
2019-04-06T09:27:00.640Z,24.32
2019-04-06T09:28:05.583Z,27.09
2019-04-06T09:29:21.872Z,24.71
2019-04-06T09:30:17.157Z,24.47
2019-04-06T09:31:22.221Z,24.72
2019-04-06T09:32:27.183Z,24.72
2019-04-06T09:33:32.121Z,28.74
2019-04-06T09:34:37.678Z,28.74
2019-04-06T09:35:42.558Z,28.09
2019-04-06T09:36:47.976Z,25.24
2019-04-06T09:37:52.873Z,29.45
2019-04-06T09:38:58.041Z,28.17
2019-04-06T09:40:03.301Z,25.69
2019-04-06T09:41:08.027Z,26.29
2019-04-06T09:42:13.329Z,27.95
2019-04-06T09:43:18.846Z,27.15
2019-04-06T09:44:45.757Z,28.76
2019-04-06T09:46:15.665Z,30.20
2019-04-06T09:47:30.876Z,31.95
2019-04-06T09:48:56.384Z,28.52
2019-04-06T09:50:38.784Z,26.07
2019-04-06T09:52:03.793Z,27.18
2019-04-06T09:53:42.955Z,25.53
2019-04-06T09:54:56.527Z,25.55
2019-04-06T09:56:20.627Z,27.91
2019-04-06T09:57:40.292Z,27.28
2019-04-06T09:59:03.980Z,26.31
2019-04-06T10:00:16.208Z,28.09
2019-04-06T10:01:38.865Z,30.21
2019-04-06T10:03:00.105Z,30.46
2019-04-06T10:04:27.104Z,31.93
2019-04-06T10:06:09.953Z,31.46
2019-04-06T10:07:32.153Z,32.22
2019-04-06T10:08:58.772Z,33.22
2019-04-06T10:10:28.397Z,33.83
2019-04-06T10:11:55.383Z,34.33
2019-04-06T10:13:17.610Z,34.57
2019-04-06T10:14:47.078Z,34.93
2019-04-06T10:16:20.359Z,34.93
2019-04-06T10:17:42.934Z,33.86
2019-04-06T10:19:05.638Z,35.45
2019-04-06T10:20:18.975Z,36.05
2019-04-06T10:21:51.774Z,36.72
2019-04-06T10:23:14.688Z,35.91
2019-04-06T10:24:32.960Z,35.21
2019-04-06T10:25:56.571Z,35.52
2019-04-06T10:27:29.917Z,35.64
2019-04-06T10:28:53.761Z,34.57
2019-04-06T10:30:18.524Z,33.04
2019-04-06T10:31:41.700Z,34.96
2019-04-06T10:33:08.641Z,33.69
2019-04-06T10:34:31.328Z,35.50
2019-04-06T10:35:54.466Z,35.64
2019-04-06T10:37:17.077Z,35.03
2019-04-06T10:38:45.115Z,34.95
2019-04-06T10:39:59.513Z,33.77
2019-04-06T10:41:15.000Z,34.16
2019-04-06T10:42:48.327Z,33.82
2019-04-06T10:44:12.855Z,33.14
2019-04-06T10:45:29.873Z,33.23
2019-04-06T10:46:50.651Z,32.37
2019-04-06T10:48:02.885Z,31.26
2019-04-06T10:49:21.271Z,31.95
2019-04-06T10:50:50.757Z,32.08
2019-04-06T10:52:13.110Z,30.94
2019-04-06T10:53:28.903Z,32.27
2019-04-06T10:54:43.687Z,32.13
2019-04-06T10:55:56.633Z,32.13
2019-04-06T10:57:19.352Z,32.76
2019-04-06T10:58:46.263Z,31.98
2019-04-06T11:00:16.024Z,31.98
2019-04-06T11:01:48.977Z,33.20
2019-04-06T11:03:12.717Z,31.00
2019-04-06T11:04:22.685Z,31.00
2019-04-06T11:05:40.337Z,32.25
2019-04-06T11:07:13.444Z,32.60
2019-04-06T11:08:37.193Z,32.24
2019-04-06T11:09:50.752Z,31.53
2019-04-06T11:11:16.374Z,31.16
2019-04-06T11:12:47.573Z,31.87
2019-04-06T11:14:14.467Z,31.01
2019-04-06T11:15:44.571Z,30.12
2019-04-06T11:17:07.409Z,31.40
2019-04-06T11:18:30.640Z,32.65
2019-04-06T11:20:02.295Z,32.14
2019-04-06T11:21:13.822Z,31.22
2019-04-06T11:22:47.100Z,30.50
2019-04-06T11:24:10.541Z,29.49
2019-04-06T11:25:21.107Z,29.15
2019-04-06T11:26:47.723Z,29.31
2019-04-06T11:28:04.747Z,28.36
2019-04-06T11:29:35.188Z,28.61
2019-04-06T11:30:49.464Z,28.60
2019-04-06T11:32:00.887Z,29.38
2019-04-06T11:33:21.271Z,29.17
2019-04-06T11:34:49.010Z,28.83
2019-04-06T11:36:27.984Z,28.15
2019-04-06T11:37:50.388Z,27.90
2019-04-06T11:39:13.007Z,26.67
2019-04-06T11:40:37.119Z,26.63
2019-04-06T11:41:55.784Z,26.08
2019-04-06T11:43:15.319Z,25.14
2019-04-06T11:44:26.851Z,23.48
2019-04-06T11:45:56.616Z,21.72
2019-04-06T11:47:20.460Z,20.04
2019-04-06T11:48:47.773Z,19.87
2019-04-06T11:50:24.301Z,18.98
2019-04-06T11:51:48.145Z,17.50
2019-04-06T11:53:09.013Z,19.45
2019-04-06T11:54:30.027Z,16.73
2019-04-06T11:55:53.075Z,14.98
2019-04-06T11:57:05.950Z,15.25
2019-04-06T11:58:35.738Z,16.00
2019-04-06T11:59:58.581Z,16.71
2019-04-06T12:01:22.664Z,16.71
2019-04-06T12:02:44.801Z,18.33
2019-04-06T12:04:07.172Z,18.57
2019-04-06T12:05:21.889Z,22.34
2019-04-06T12:06:43.867Z,22.58
2019-04-06T12:07:59.158Z,24.81
2019-04-06T12:09:22.606Z,26.39
2019-04-06T12:10:45.420Z,24.57
2019-04-06T12:12:15.417Z,21.98
2019-04-06T12:13:36.594Z,23.20
2019-04-06T12:14:49.638Z,22.89
2019-04-06T12:16:13.397Z,25.32
2019-04-06T12:17:49.847Z,27.57
2019-04-06T12:19:00.697Z,28.79
2019-04-06T12:20:27.543Z,24.88
2019-04-06T12:21:43.974Z,26.08
2019-04-06T12:23:17.539Z,20.18
2019-04-06T12:24:40.238Z,21.92
2019-04-06T12:26:16.385Z,24.98
2019-04-06T12:27:49.283Z,26.66
2019-04-06T12:29:19.065Z,24.73
2019-04-06T12:30:37.278Z,26.32
2019-04-06T12:31:45.474Z,22.68
2019-04-06T12:33:04.104Z,23.50
2019-04-06T12:34:15.830Z,24.53
2019-04-06T12:35:39.053Z,26.00
2019-04-06T12:37:01.023Z,25.65
2019-04-06T12:38:26.630Z,25.44
2019-04-06T12:39:51.813Z,24.91
2019-04-06T12:41:12.208Z,25.82
2019-04-06T12:42:39.379Z,26.65
2019-04-06T12:44:02.183Z,26.53
2019-04-06T12:45:22.161Z,26.88
2019-04-06T12:46:58.780Z,26.93
2019-04-06T12:48:21.570Z,26.56
2019-04-06T12:49:45.402Z,26.32
2019-04-06T12:51:07.904Z,28.12
2019-04-06T12:52:32.641Z,28.53
2019-04-06T12:53:46.792Z,27.54
2019-04-06T12:55:20.067Z,27.04
2019-04-06T12:56:36.747Z,27.98
2019-04-06T12:57:50.621Z,26.32
2019-04-06T12:59:14.638Z,26.40
2019-04-06T13:00:29.762Z,27.29
2019-04-06T13:01:56.431Z,28.64
2019-04-06T13:03:18.905Z,29.28
2019-04-06T13:04:42.370Z,28.73
2019-04-06T13:05:57.384Z,29.61
2019-04-06T13:07:27.940Z,30.18
2019-04-06T13:08:44.746Z,28.62
2019-04-06T13:10:07.749Z,29.41
2019-04-06T13:11:44.529Z,29.94
2019-04-06T13:13:14.482Z,30.79
2019-04-06T13:14:38.066Z,30.73
2019-04-06T13:16:20.234Z,30.59
2019-04-06T13:17:50.260Z,30.87
2019-04-06T13:19:17.273Z,30.29
2019-04-06T13:20:47.437Z,31.80
2019-04-06T13:22:03.207Z,29.87
2019-04-06T13:23:27.085Z,30.78
2019-04-06T13:24:53.872Z,29.77
2019-04-06T13:26:21.053Z,29.22
2019-04-06T13:27:32.654Z,29.80
2019-04-06T13:28:54.866Z,29.73
2019-04-06T13:31:51.213Z,30.25
2019-04-06T13:33:33.856Z,29.85
2019-04-06T13:35:06.800Z,30.64
2019-04-06T13:36:31.203Z,29.97
2019-04-06T13:37:54.721Z,30.52
2019-04-06T13:39:10.258Z,30.79
2019-04-06T13:40:36.686Z,30.78
2019-04-06T13:42:04.635Z,30.97
2019-04-06T13:43:21.151Z,30.51
2019-04-06T13:44:38.756Z,31.83
2019-04-06T13:46:05.837Z,31.56
2019-04-06T13:47:18.388Z,31.45
2019-04-06T13:48:45.206Z,32.10
2019-04-06T13:49:57.930Z,32.64
2019-04-06T13:51:08.820Z,32.80
2019-04-06T13:52:36.339Z,31.75
2019-04-06T13:54:03.470Z,31.08
2019-04-06T13:55:27.549Z,30.55
2019-04-06T13:56:47.369Z,32.64
2019-04-06T13:58:09.231Z,32.05
2019-04-06T13:59:36.482Z,31.06
2019-04-06T14:00:51.868Z,31.29
2019-04-06T14:02:15.292Z,31.05
2019-04-06T14:03:31.127Z,30.85
2019-04-06T14:05:00.799Z,33.16
2019-04-06T14:06:33.652Z,32.25
2019-04-06T14:08:03.482Z,32.81
2019-04-06T14:09:18.861Z,31.65
2019-04-06T14:10:40.401Z,31.65
2019-04-06T14:12:07.578Z,33.70
2019-04-06T14:13:37.143Z,32.33
2019-04-06T14:15:13.142Z,32.91
2019-04-06T14:16:26.623Z,32.43
2019-04-06T14:17:40.783Z,32.33
2019-04-06T14:19:10.966Z,32.58
2019-04-06T14:20:37.832Z,32.25
2019-04-06T14:22:13.959Z,32.04
2019-04-06T14:23:40.783Z,31.89
2019-04-06T14:25:07.358Z,31.39
2019-04-06T14:26:30.938Z,32.23
2019-04-06T14:27:57.958Z,32.08
2019-04-06T14:29:07.432Z,32.00
2019-04-06T14:30:25.714Z,32.16
2019-04-06T14:31:43.192Z,32.04
2019-04-06T14:33:06.807Z,31.51
2019-04-06T14:34:36.493Z,30.93
2019-04-06T14:36:09.678Z,31.43
2019-04-06T14:37:31.122Z,33.27
2019-04-06T14:39:01.018Z,32.68
2019-04-06T14:40:23.756Z,31.71
2019-04-06T14:41:46.074Z,31.24
2019-04-06T14:43:07.165Z,31.42
2019-04-06T14:44:42.790Z,32.82
2019-04-06T14:46:05.806Z,34.03
2019-04-06T14:47:22.093Z,32.94
2019-04-06T14:48:56.602Z,34.58
2019-04-06T14:50:29.894Z,33.22
2019-04-06T14:52:57.439Z,33.20
2019-04-06T14:54:14.306Z,33.80
2019-04-06T14:57:50.385Z,34.06
2019-04-06T14:59:12.535Z,34.13
2019-04-06T15:00:28.730Z,34.04
2019-04-06T15:01:58.254Z,34.15
2019-04-06T15:03:20.555Z,34.48
2019-04-06T15:04:42.365Z,35.24
2019-04-06T15:06:32.842Z,34.81
2019-04-06T15:08:24.183Z,34.81
2019-04-06T15:10:06.182Z,34.36
2019-04-06T15:11:21.739Z,34.80
2019-04-06T15:13:59.612Z,34.57
2019-04-06T15:15:38.457Z,35.12
2019-04-06T15:23:03.749Z,33.75
2019-04-06T15:24:37.385Z,34.16
2019-04-06T15:26:38.145Z,33.98
2019-04-06T15:28:14.308Z,33.59
2019-04-06T15:32:08.392Z,34.32
2019-04-06T15:33:33.428Z,34.80